SDCB weather

Fazenda São Marcos Airport
Itapeva, São Paulo, Brazil

Public forecast

Using degrees Celsius for public forecast. Weather courtesy of forecast.io.

METAR (pilot weather report)

Closest report is Bacacheri Airport, 91.8 nm (170.1 km) SSW. Retrieved 2019/08/25 23:00 UTC (17 minutes ago):

SBBI 252300Z 09010KT 9999 BKN013 11/08 Q1028

TAF (pilot weather forecast)

Closest forecast is Bacacheri Airport, 91.8 nm (170.1 km) SSW. Retrieved 2019/08/25 18:30 UTC (5 hours ago):

TAF SBBI 251500Z 2518/2606 08007KT 9999 SCT030 TX16/2518Z TN10/2606Z BECMG 2520/2522 SCT015 BECMG 2522/2524 BKN007 PROB40 TEMPO 2600/2606 4000 BR BKN005 OVC008 RMK PDJ